Data for 06/13/2007

Time Sea-Level Adjusted Pressure Absolute Pressure Temperature Relative Humidity Dew Point   
(mb) (inHg) (mb) (inHg) (C) (F) (%) (C) (F)
00:05 1022 30.18 851 25.13 11.9 53.5 50 1.9 35.5
00:10 1022 30.18 851 25.13 12.5 54.6 49 2.1 35.8
00:15 1022 30.18 851 25.13 12.3 54.2 49 2 35.7
00:20 1022 30.18 851 25.13 12.1 53.8 51 2.3 36.2
00:25 1022 30.18 851 25.13 12.1 53.7 50 2.1 35.7
00:30 1022 30.18 851 25.13 12.3 54.1 50 2.2 36
00:35 1022 30.18 851 25.13 12 53.6 52 2.5 36.5
00:40 1022 30.18 851 25.13 11.3 52.3 54 2.5 36.5
00:45 1022 30.18 851 25.13 10.9 51.6 54 2.1 35.8
00:50 1022 30.18 851 25.13 10.9 51.7 52 1.6 35
00:55 1022 30.18 851 25.13 11.1 52 54 2.1 35.7
01:00 1022 30.18 851 25.13 10.7 51.3 56 2.2 36
01:05 1022 30.18 851 25.13 10.7 51.2 56 2.2 36
01:10 1022 30.18 851 25.13 10.8 51.5 55 2.1 35.8
01:15 1022 30.18 851 25.13 11 51.7 53 1.9 35.4
01:20 1022 30.18 851 25.13 11.1 51.9 52 1.6 34.9
01:25 1022 30.18 851 25.13 11.4 52.4 52 1.9 35.4
01:30 1022 30.18 851 25.13 11 51.8 55 2.4 36.3
01:35 1022 30.18 852 25.16 10.8 51.4 55 2.1 35.8
01:40 1022 30.18 851 25.13 10.7 51.3 55 2.1 35.8
01:45 1022 30.18 851 25.13 10.8 51.4 55 2.2 36
01:50 1022 30.18 851 25.13 10.6 51.1 56 2.2 35.9
01:55 1022 30.18 852 25.16 10.4 50.8 57 2.4 36.3
02:00 1022 30.18 852 25.16 10.2 50.4 57 2.2 36
02:05 1022 30.18 852 25.16 10.2 50.4 57 2.1 35.7
02:10 1022 30.18 852 25.16 10.4 50.6 57 2.3 36.1
02:15 1022 30.18 852 25.16 10.4 50.8 56 2 35.5
02:20 1022 30.18 852 25.16 10.2 50.3 58 2.4 36.3
02:25 1022 30.18 852 25.16 9.9 49.7 59 2.2 35.9
02:30 1022 30.18 852 25.16 9.8 49.7 59 2.2 36
02:35 1022 30.18 852 25.16 9.6 49.3 60 2.2 36
02:40 1022 30.18 852 25.16 9.7 49.4 59 2 35.7
02:45 1022 30.18 852 25.16 9.8 49.6 58 2 35.6
02:50 1022 30.18 852 25.16 10 50.1 57 1.9 35.4
02:55 1022 30.18 852 25.16 10.1 50.2 56 1.7 35
03:00 1022 30.18 852 25.16 10.2 50.4 56 1.9 35.5
03:05 1023 30.21 852 25.16 9.9 49.8 57 1.9 35.4
03:10 1023 30.21 852 25.16 10 49.9 57 1.8 35.2
03:15 1023 30.21 852 25.16 10 49.9 58 2 35.6
03:20 1023 30.21 852 25.16 9.7 49.5 59 2 35.6
03:25 1022 30.18 852 25.16 9.6 49.2 59 1.9 35.4
03:30 1022 30.18 852 25.16 9.6 49.2 59 1.9 35.3
03:35 1022 30.18 852 25.16 9.7 49.5 57 1.7 35.1
03:40 1023 30.21 852 25.16 9.7 49.4 57 1.6 34.9
03:45 1023 30.21 852 25.16 9.5 49.1 60 2.1 35.8
03:50 1023 30.21 852 25.16 9.1 48.3 60 1.8 35.3
03:55 1023 30.21 852 25.16 9.1 48.3 60 1.8 35.2
04:00 1023 30.21 852 25.16 8.9 47.9 60 1.6 34.8
04:05 1023 30.21 852 25.16 9.2 48.5 58 1.4 34.6
04:10 1023 30.21 852 25.16 9.3 48.7 58 1.5 34.6
04:15 1023 30.21 852 25.16 9.3 48.7 59 1.7 35
04:20 1023 30.21 852 25.16 9.1 48.3 60 1.7 35
04:25 1023 30.21 852 25.16 9.1 48.3 59 1.4 34.5
04:30 1023 30.21 852 25.16 9.1 48.4 58 1.4 34.6
04:35 1023 30.21 852 25.16 9 48.1 60 1.6 34.9
04:40 1023 30.21 852 25.16 8.7 47.7 61 1.6 34.9
04:45 1023 30.21 852 25.16 8.7 47.7 60 1.3 34.4
04:50 1023 30.21 852 25.16 8.8 47.9 60 1.5 34.7
04:55 1023 30.21 852 25.16 8.8 47.8 60 1.4 34.5
05:00 1023 30.21 852 25.16 8.9 48 58 1.1 34
05:05 1023 30.21 852 25.16 9.1 48.4 58 1.3 34.3
05:10 1023 30.21 852 25.16 9.2 48.5 56 1 33.7
05:15 1023 30.21 852 25.16 9.1 48.4 58 1.3 34.3
05:20 1023 30.21 852 25.16 9 48.2 58 1.3 34.4
05:25 1023 30.21 852 25.16 9 48.1 58 1.3 34.3
05:30 1023 30.21 852 25.16 9 48.2 59 1.4 34.5
05:35 1023 30.21 852 25.16 8.8 47.9 59 1.3 34.3
05:40 1023 30.21 852 25.16 8.6 47.6 60 1.4 34.5
05:45 1023 30.21 852 25.16 8.2 46.8 62 1.5 34.7
05:50 1023 30.21 852 25.16 8.1 46.5 62 1.3 34.3
05:55 1023 30.21 852 25.16 8 46.4 62 1.3 34.3
06:00 1023 30.21 852 25.16 8.2 46.8 62 1.3 34.4
06:05 1023 30.21 852 25.16 8.3 46.9 62 1.4 34.6
06:10 1023 30.21 852 25.16 8.2 46.8 62 1.4 34.6
06:15 1023 30.21 852 25.16 8.3 46.9 62 1.5 34.6
06:20 1023 30.21 852 25.16 8.3 47 62 1.4 34.6
06:25 1023 30.21 852 25.16 8.5 47.2 60 1.3 34.3
06:30 1023 30.21 852 25.16 8.7 47.6 60 1.4 34.6
06:35 1023 30.21 852 25.16 9.1 48.3 59 1.6 34.8
06:40 1023 30.21 852 25.16 9.1 48.4 59 1.4 34.6
06:45 1023 30.21 852 25.16 9.1 48.4 59 1.7 35
06:50 1023 30.21 852 25.16 9.3 48.8 59 1.8 35.2
06:55 1023 30.21 852 25.16 9.8 49.6 58 1.8 35.3
07:00 1023 30.21 852 25.16 10.1 50.2 55 1.5 34.6
07:05 1023 30.21 852 25.16 10.3 50.5 56 2 35.7
07:10 1023 30.21 852 25.16 10.6 51.1 55 2 35.6
07:15 1023 30.21 852 25.16 10.9 51.5 54 1.9 35.4
07:20 1023 30.21 852 25.16 10.8 51.4 56 2.3 36.1
07:25 1023 30.21 852 25.16 10.7 51.2 56 2.2 36
07:30 1023 30.21 852 25.16 11.1 51.9 52 1.7 35.1
07:35 1023 30.21 852 25.16 11.2 52.2 54 2.4 36.3
07:40 1023 30.21 852 25.16 11.5 52.7 55 2.7 36.9
07:45 1023 30.21 852 25.16 11.7 53 52 2.3 36.2
07:50 1023 30.21 852 25.16 12.1 53.8 50 2.2 35.9
07:55 1023 30.21 852 25.16 12.8 55 47 1.7 35.1
08:00 1023 30.21 852 25.16 13.3 55.9 46 2 35.7
08:05 1023 30.21 852 25.16 13.7 56.6 45 2.1 35.7
08:10 1023 30.21 852 25.16 13.7 56.7 45 2 35.7
08:15 1023 30.21 852 25.16 13.8 56.8 44 1.9 35.3
08:20 1023 30.21 852 25.16 14.3 57.8 42 1.6 34.8
08:25 1023 30.21 852 25.16 14.8 58.6 42 2 35.6
08:30 1023 30.21 852 25.16 14.7 58.5 43 2.2 35.9
08:35 1023 30.21 852 25.16 14.4 57.9 43 2 35.6
08:40 1023 30.21 852 25.16 14.7 58.4 41 1.7 35
08:45 1023 30.21 852 25.16 14.7 58.4 42 2 35.7
08:50 1023 30.21 852 25.16 14.8 58.6 39 1.2 34.1
08:55 1023 30.21 852 25.16 15.5 59.9 37 1.1 33.9
09:00 1023 30.21 852 25.16 15.9 60.5 37 1.3 34.4
09:05 1023 30.21 852 25.16 15.9 60.7 37 1.2 34.2
09:10 1023 30.21 852 25.16 16.9 62.3 35 1.3 34.3
09:15 1023 30.21 852 25.16 17.1 62.7 35 1.6 34.9
09:20 1023 30.21 852 25.16 17 62.6 35 1.5 34.7
09:25 1023 30.21 852 25.16 16.7 62 40 3 37.4
09:30 1023 30.21 852 25.16 16.5 61.7 36 1.5 34.7
09:35 1023 30.21 852 25.16 16.9 62.5 37 2.1 35.8
09:40 1023 30.21 852 25.16 17.1 62.8 36 1.9 35.3
09:45 1022 30.18 852 25.16 18 64.4 32 1.1 33.9
09:50 1022 30.18 852 25.16 18.4 65.1 33 1.8 35.3
09:55 1022 30.18 852 25.16 18.4 65.2 33 2 35.6
10:00 1022 30.18 852 25.16 18.4 65.2 33 1.9 35.4
10:05 1022 30.18 852 25.16 19.1 66.4 30 1.3 34.3
10:10 1022 30.18 852 25.16 19.3 66.8 31 2 35.7
10:15 1022 30.18 852 25.16 19.1 66.3 31 1.7 35.1
10:20 1022 30.18 852 25.16 18.7 65.6 33 2 35.7
10:25 1022 30.18 852 25.16 18.6 65.4 32 1.5 34.7
10:30 1022 30.18 852 25.16 19.2 66.5 30 1.3 34.4
10:35 1022 30.18 851 25.13 19.3 66.8 30 1.5 34.6
10:40 1022 30.18 851 25.13 19 66.3 31 1.7 35
10:45 1022 30.18 851 25.13 18.9 66 30 1.2 34.1
10:50 1022 30.18 851 25.13 19 66.2 31 1.4 34.6
10:55 1022 30.18 851 25.13 18.9 66 30 1.1 34
11:00 1022 30.18 851 25.13 18.5 65.2 32 1.4 34.6
11:05 1022 30.18 851 25.13 19 66.1 31 1.4 34.6
11:10 1022 30.18 851 25.13 20.1 68.3 28 1 33.9
11:15 1022 30.18 851 25.13 20.6 69.1 29 2.4 36.3
11:20 1022 30.18 851 25.13 20 67.9 30 1.9 35.5
11:25 1022 30.18 851 25.13 20 67.9 29 1.6 34.9
11:30 1022 30.18 851 25.13 19.8 67.7 30 2 35.6
11:35 1022 30.18 851 25.13 20.5 68.8 29 1.8 35.3
11:40 1022 30.18 851 25.13 20.2 68.4 29 1.7 35.1
11:45 1022 30.18 851 25.13 20.8 69.4 27 1.1 33.9
11:50 1022 30.18 851 25.13 21.5 70.7 27 2 35.6
11:55 1022 30.18 851 25.13 21.6 70.8 27 2.1 35.8
12:00 1022 30.18 851 25.13 20.1 68.1 31 2.8 37
12:05 1022 30.18 851 25.13 20.9 69.6 29 2.5 36.5
12:10 1022 30.18 851 25.13 20.9 69.6 29 2.2 35.9
12:15 1021 30.15 851 25.13 21.5 70.6 27 1.9 35.5
12:20 1021 30.15 851 25.13 22.3 72.1 29 3.6 38.4
12:25 1021 30.15 851 25.13 20.9 69.7 30 2.8 37.1
12:30 1021 30.15 851 25.13 21 69.7 29 2.7 36.8
12:35 1021 30.15 851 25.13 21.1 70 29 2.5 36.5
12:40 1021 30.15 851 25.13 21.6 70.9 28 2.4 36.3
12:45 1021 30.15 851 25.13 21.6 70.8 26 1.5 34.7
12:50 1021 30.15 851 25.13 20.9 69.5 28 2 35.7
12:55 1021 30.15 850 25.1 21.1 70 29 2.4 36.3
13:00 1021 30.15 850 25.1 21.9 71.4 26 1.9 35.5
13:05 1021 30.15 850 25.1 22.3 72.1 25 1.4 34.5
13:10 1021 30.15 850 25.1 22.1 71.8 26 1.7 35
13:15 1021 30.15 850 25.1 21.9 71.4 26 1.9 35.5
13:20 1021 30.15 850 25.1 22.2 71.9 27 2.6 36.7
13:25 1021 30.15 850 25.1 22.4 72.2 25 1.7 35.1
13:30 1021 30.15 850 25.1 22.7 72.9 25 1.9 35.4
13:35 1021 30.15 850 25.1 22.4 72.3 26 2 35.6
13:40 1021 30.15 850 25.1 22.6 72.6 26 2.5 36.6
13:45 1021 30.15 850 25.1 22.7 72.9 25 2.2 35.9
13:50 1021 30.15 850 25.1 22.2 72 26 1.8 35.3
13:55 1021 30.15 850 25.1 21.9 71.4 26 1.7 35
14:00 1021 30.15 850 25.1 21.7 71.1 28 2.4 36.3
14:05 1021 30.15 850 25.1 21.9 71.5 27 2.5 36.5
14:10 1021 30.15 850 25.1 21.9 71.4 27 2.5 36.5
14:15 1021 30.15 850 25.1 21.9 71.3 27 2.4 36.2
14:20 1021 30.15 850 25.1 21.6 70.9 27 2 35.5
14:25 1021 30.15 850 25.1 22.3 72.2 27 2.4 36.4
14:30 1021 30.15 850 25.1 22.2 71.9 28 3 37.4
14:35 1021 30.15 850 25.1 21.8 71.2 28 2.8 37.1
14:40 1020 30.12 850 25.1 22 71.7 28 2.7 36.9
14:45 1020 30.12 850 25.1 21.2 70.1 29 2.6 36.6
14:50 1020 30.12 849 25.07 21.4 70.5 29 3 37.4
14:55 1020 30.12 849 25.07 22 71.6 28 2.9 37.1
15:00 1020 30.12 850 25.1 22.2 72 27 2.4 36.2
15:05 1020 30.12 849 25.07 22.3 72.1 26 2.3 36.2
15:10 1020 30.12 849 25.07 22.4 72.3 28 3.3 37.9
15:15 1020 30.12 849 25.07 22.2 71.9 29 3.3 38
15:20 1020 30.12 849 25.07 22 71.7 27 2.3 36.1
15:25 1020 30.12 849 25.07 22.1 71.8 28 2.8 37.1
15:30 1020 30.12 849 25.07 21.8 71.3 28 2.6 36.7
15:35 1020 30.12 849 25.07 22.2 71.9 27 2.7 36.8
15:40 1020 30.12 849 25.07 21.8 71.2 28 2.4 36.4
15:45 1020 30.12 849 25.07 21.9 71.5 27 2.4 36.3
15:50 1020 30.12 849 25.07 22.2 71.9 28 2.9 37.3
15:55 1020 30.12 849 25.07 23 73.3 25 2.3 36.1
16:00 1020 30.12 849 25.07 22.7 72.9 27 2.9 37.2
16:05 1020 30.12 849 25.07 22.6 72.6 27 2.6 36.8
16:10 1020 30.12 849 25.07 23 73.4 26 2.9 37.3
16:15 1019 30.09 849 25.07 23.9 75 25 3 37.4
16:20 1019 30.09 849 25.07 25.1 77.1 24 3.2 37.8
16:25 1019 30.09 849 25.07 24.7 76.5 26 4 39.3
16:30 1019 30.09 849 25.07 24.2 75.6 26 3.8 38.9
16:35 1019 30.09 848 25.04 24.5 76 26 3.9 39
16:40 1019 30.09 848 25.04 24.7 76.4 27 4.5 40
16:45 1019 30.09 848 25.04 25.2 77.3 26 4.4 39.9
16:50 1019 30.09 848 25.04 25.4 77.8 24 3.9 39
16:55 1019 30.09 848 25.04 25.7 78.3 25 4.4 39.8
17:00 1019 30.09 848 25.04 25.1 77.2 26 4.5 40
17:05 1019 30.09 848 25.04 25.4 77.7 26 4.6 40.3
17:10 1019 30.09 848 25.04 25.3 77.5 25 4.3 39.8
17:15 1019 30.09 848 25.04 25.3 77.5 26 4.6 40.2
17:20 1019 30.09 848 25.04 25 77.1 27 5 41
17:25 1019 30.09 848 25.04 25 77.1 27 5.2 41.3
17:30 1019 30.09 848 25.04 25 77.1 26 4.2 39.6
17:35 1019 30.09 848 25.04 24.9 76.8 27 4.8 40.7
17:40 1019 30.09 848 25.04 24.7 76.5 28 5.3 41.6
17:45 1019 30.09 848 25.04 24.7 76.5 28 5.2 41.4
17:50 1019 30.09 848 25.04 24.7 76.4 27 4.8 40.7
17:55 1019 30.09 848 25.04 24.3 75.8 27 4.3 39.7
18:00 1018 30.06 848 25.04 24.1 75.4 28 4.6 40.3
18:05 1018 30.06 848 25.04 24.1 75.4 27 4 39.2
18:10 1018 30.06 848 25.04 24 75.3 27 4.2 39.5
18:15 1018 30.06 847 25.01 23.8 74.8 26 3.6 38.4
18:20 1018 30.06 847 25.01 24.3 75.7 25 3.5 38.3
18:25 1018 30.06 847 25.01 24.8 76.6 25 3.5 38.3
18:30 1018 30.06 847 25.01 24.4 75.9 26 3.8 38.8
18:35 1018 30.06 847 25.01 24.1 75.4 27 3.9 39
18:40 1018 30.06 847 25.01 24.5 76.1 25 3.5 38.3
18:45 1018 30.06 847 25.01 23.6 74.4 27 3.7 38.7
18:50 1018 30.06 847 25.01 22.8 73.1 28 3.6 38.5
18:55 1018 30.06 847 25.01 22.7 72.8 28 3.6 38.5
19:00 1018 30.06 847 25.01 22.9 73.2 28 3.7 38.7
19:05 1018 30.06 847 25.01 22.6 72.7 28 3.5 38.2
19:10 1018 30.06 847 25.01 22.5 72.4 28 3.2 37.8
19:15 1018 30.06 847 25.01 22.4 72.4 28 3.2 37.8
19:20 1018 30.06 847 25.01 22.6 72.6 28 3.2 37.7
19:25 1018 30.06 847 25.01 22.8 73 28 3.4 38
19:30 1018 30.06 847 25.01 22.9 73.1 27 3.3 37.9
19:35 1018 30.06 847 25.01 22.9 73.1 29 4.1 39.3
19:40 1018 30.06 847 25.01 22.7 72.9 29 3.8 38.8
19:45 1018 30.06 847 25.01 22.4 72.4 32 5.3 41.5
19:50 1018 30.06 847 25.01 21.9 71.4 35 5.9 42.7
19:55 1018 30.06 847 25.01 21.5 70.7 34 5.3 41.5
20:00 1018 30.06 847 25.01 21.3 70.4 35 5.6 42
20:05 1018 30.06 847 25.01 21.2 70.2 41 7.7 45.8
20:10 1018 30.06 847 25.01 21 69.8 38 6.3 43.3
20:15 1018 30.06 847 25.01 20.8 69.4 39 6.4 43.5
20:20 1018 30.06 847 25.01 20.7 69.3 38 6.1 43
20:25 1018 30.06 847 25.01 20.7 69.2 40 6.9 44.4
20:30 1018 30.06 847 25.01 20.7 69.2 42 7.6 45.6
20:35 1018 30.06 847 25.01 20.6 69.1 40 6.8 44.2
20:40 1018 30.06 847 25.01 20.5 68.8 41 6.9 44.4
20:45 1018 30.06 847 25.01 20.2 68.3 44 7.7 45.9
20:50 1018 30.06 847 25.01 19.8 67.7 50 9.3 48.7
20:55 1017 30.03 847 25.01 19.7 67.4 46 7.9 46.3
21:00 1017 30.03 847 25.01 19.5 67.1 46 7.6 45.7
21:05 1017 30.03 847 25.01 19.2 66.5 48 8.1 46.6
21:10 1017 30.03 847 25.01 18.9 65.9 49 8 46.4
21:15 1017 30.03 847 25.01 18.7 65.7 49 8 46.5
21:20 1017 30.03 847 25.01 18.7 65.6 49 7.9 46.1
21:25 1017 30.03 847 25.01 18.6 65.5 49 7.7 45.8
21:30 1017 30.03 847 25.01 18.6 65.6 48 7.6 45.7
21:35 1017 30.03 847 25.01 18.6 65.4 50 8 46.4
21:40 1017 30.03 847 25.01 18.5 65.3 49 7.8 46.1
21:45 1017 30.03 847 25.01 18.4 65.2 47 7 44.6
21:50 1017 30.03 846 24.98 18.6 65.4 50 8.2 46.8
21:55 1017 30.03 846 24.98 18.5 65.2 48 7.4 45.3
22:00 1017 30.03 846 24.98 18.4 65.1 47 6.9 44.4
22:05 1017 30.03 846 24.98 18.4 65.2 47 7 44.6
22:10 1017 30.03 847 25.01 18.6 65.5 47 7.2 44.9
22:15 1017 30.03 847 25.01 18.6 65.5 45 6.5 43.7
22:20 1018 30.06 847 25.01 18.7 65.6 45 6.5 43.7
22:25 1018 30.06 847 25.01 18.7 65.7 46 7.1 44.7
22:30 1018 30.06 847 25.01 18.7 65.6 50 8.1 46.5
22:35 1018 30.06 847 25.01 18.5 65.2 51 8.3 46.9
22:40 1018 30.06 847 25.01 18.3 64.9 53 8.7 47.7
22:45 1018 30.06 847 25.01 18.3 64.9 53 8.8 47.8
22:50 1018 30.06 847 25.01 18.3 64.9 52 8.3 47
22:55 1018 30.06 848 25.04 18.1 64.6 49 7.5 45.4
23:00 1018 30.06 848 25.04 18 64.3 49 7.2 45
23:05 1018 30.06 848 25.04 17.7 63.9 50 7.2 45
23:10 1018 30.06 848 25.04 17.1 62.7 59 9.2 48.5
23:15 1019 30.09 848 25.04 16.4 61.5 61 8.8 47.9
23:20 1019 30.09 848 25.04 16 60.9 59 8.1 46.6
23:25 1019 30.09 848 25.04 15.8 60.5 55 7 44.5
23:30 1018 30.06 848 25.04 16.3 61.3 52 6.6 43.8
23:35 1018 30.06 848 25.04 16.4 61.5 54 7.2 45
23:40 1018 30.06 847 25.01 16.4 61.5 54 7.1 44.8
23:45 1018 30.06 847 25.01 16.1 61 57 7.6 45.7
23:50 1018 30.06 847 25.01 15.8 60.4 59 7.8 46.1
23:55 1018 30.06 847 25.01 15.4 59.7 59 7.4 45.3
24:00 1018 30.06 848 25.04 15.2 59.3 58 7.1 44.8